Time;durP1;ratioP1;P1;durP2;ratioP2;P2;SDS_P1;SDS_P2;PMS_P1;PMS_P2;Temp;Humidity;BMP_temperature;BMP_pressure;BME280_temperature;BME280_humidity;BME280_pressure;Samples;Min_cycle;Max_cycle;Signal;HPM_P1;HPM_P2
2022/04/27 05:32:40;;;;;;;6.38;2.83;;;;;;;7.75;91.49;98552.88;5111887;27;20810;-58
2022/04/27 05:35:05;;;;;;;5.85;3.20;;;;;;;8.01;94.01;98593.88;5096364;28;20066;-59
2022/04/27 05:37:31;;;;;;;5.65;2.70;;;;;;;7.96;92.78;98578.75;5079433;28;20164;-58
2022/04/27 05:39:57;;;;;;;5.68;2.58;;;;;;;8.00;92.40;98597.44;5088953;28;20028;-59
2022/04/27 05:42:22;;;;;;;5.82;2.80;;;;;;;7.99;91.90;98598.38;5090076;28;20064;-58
2022/04/27 05:44:48;;;;;;;5.40;2.97;;;;;;;7.99;91.57;98604.38;5092083;28;20138;-58
2022/04/27 05:47:13;;;;;;;5.53;2.85;;;;;;;8.02;92.95;98617.06;5083749;28;20036;-58
2022/04/27 05:49:38;;;;;;;6.65;2.53;;;;;;;8.01;93.00;98609.41;5093272;28;20095;-58
2022/04/27 05:52:04;;;;;;;6.10;3.00;;;;;;;8.08;91.93;98618.31;5114378;28;20036;-59
2022/04/27 05:54:29;;;;;;;7.22;2.78;;;;;;;8.00;92.04;98600.84;5103180;28;20045;-58
2022/04/27 05:56:55;;;;;;;6.65;2.70;;;;;;;8.13;91.48;98621.34;5120176;28;20031;-58
2022/04/27 05:59:21;;;;;;;5.80;2.38;;;;;;;7.96;90.53;98573.56;5096307;28;20118;-59
2022/04/27 06:01:46;;;;;;;6.97;2.42;;;;;;;8.15;90.29;98584.97;5121507;28;20054;-59
2022/04/27 06:04:11;;;;;;;6.00;2.13;;;;;;;8.48;88.82;98627.94;5113446;28;20477;-59
2022/04/27 06:06:37;;;;;;;4.63;2.33;;;;;;;8.53;89.06;98624.97;5117253;28;20678;-58
2022/04/27 06:09:03;;;;;;;4.80;2.08;;;;;;;8.57;89.64;98621.16;5119812;28;20049;-59
2022/04/27 06:11:29;;;;;;;6.07;2.40;;;;;;;8.63;90.98;98624.03;5115330;28;20035;-59
2022/04/27 06:13:54;;;;;;;5.18;2.33;;;;;;;8.64;91.52;98620.47;5102417;28;20249;-59
2022/04/27 06:16:22;;;;;;;5.30;2.55;;;;;;;8.59;91.64;98620.06;5120167;28;20031;-59
2022/04/27 06:18:47;;;;;;;4.80;2.45;;;;;;;8.65;91.55;98616.94;5117658;28;20032;-58
2022/04/27 06:21:13;;;;;;;6.47;2.40;;;;;;;8.60;91.69;98606.16;5104199;28;20402;-59
2022/04/27 06:23:39;;;;;;;6.28;2.22;;;;;;;8.49;90.58;98620.97;5108134;28;20024;-59
2022/04/27 06:26:06;;;;;;;4.85;2.28;;;;;;;8.49;90.64;98619.22;5118675;27;20031;-59
2022/04/27 06:28:34;;;;;;;4.50;2.22;;;;;;;8.41;90.84;98621.59;5117726;28;20546;-59
2022/04/27 06:31:00;;;;;;;4.90;2.10;;;;;;;8.39;91.04;98613.94;5102591;28;20024;-59
2022/04/27 06:33:26;;;;;;;4.20;2.20;;;;;;;8.34;92.03;98618.72;5117865;28;20038;-59
2022/04/27 06:35:51;;;;;;;4.57;2.20;;;;;;;8.22;92.08;98599.03;5103704;28;20382;-59
2022/04/27 06:38:17;;;;;;;4.65;2.30;;;;;;;8.34;92.15;98618.72;5103212;27;20027;-59
2022/04/27 06:40:42;;;;;;;5.88;2.28;;;;;;;8.42;92.14;98626.69;5112000;28;20038;-58
2022/04/27 06:43:08;;;;;;;4.95;2.30;;;;;;;8.53;92.43;98627.56;5105620;27;20029;-58
2022/04/27 06:45:36;;;;;;;4.68;2.13;;;;;;;8.22;91.65;98586.09;5098483;28;20028;-59
2022/04/27 06:48:04;;;;;;;8.45;2.30;;;;;;;8.45;92.50;98633.38;5093901;28;20019;-58
2022/04/27 06:50:30;;;;;;;5.28;2.63;;;;;;;8.37;92.94;98594.31;5096673;28;20039;-59
2022/04/27 06:52:59;;;;;;;4.72;2.22;;;;;;;8.45;92.55;98597.94;5106258;28;20068;-59
2022/04/27 06:55:25;;;;;;;5.20;2.40;;;;;;;8.78;92.36;98641.78;5102780;28;20046;-59
2022/04/27 06:57:50;;;;;;;6.13;2.70;;;;;;;8.72;92.13;98637.97;5107092;28;20050;-59
2022/04/27 07:00:16;;;;;;;5.38;2.55;;;;;;;8.80;91.42;98645.09;5082077;28;20027;-59
2022/04/27 07:02:41;;;;;;;9.07;2.67;;;;;;;8.43;91.04;98602.44;5084674;28;20028;-59
2022/04/27 07:05:09;;;;;;;5.43;2.70;;;;;;;8.71;89.99;98643.31;5105569;28;20064;-59
2022/04/27 07:07:35;;;;;;;7.88;2.80;;;;;;;8.79;90.47;98648.63;5101095;28;20879;-59
2022/04/27 07:10:01;;;;;;;8.32;2.67;;;;;;;8.72;90.45;98629.38;5107511;28;20028;-59
2022/04/27 07:12:26;;;;;;;5.80;3.08;;;;;;;9.00;89.02;98656.34;5100511;28;20063;-59
2022/04/27 07:14:51;;;;;;;6.93;2.58;;;;;;;8.99;87.84;98649.50;5101205;28;20566;-59
2022/04/27 07:17:17;;;;;;;8.07;2.70;;;;;;;8.76;87.31;98608.25;5090831;28;20761;-59
2022/04/27 07:19:43;;;;;;;5.75;2.92;;;;;;;9.07;88.10;98665.19;5089095;28;20020;-59
2022/04/27 07:22:10;;;;;;;7.13;2.63;;;;;;;8.92;89.39;98632.84;5092886;28;20028;-58
2022/04/27 07:24:37;;;;;;;6.63;2.67;;;;;;;8.97;88.97;98652.22;5099470;28;20055;-59
2022/04/27 07:27:02;;;;;;;6.88;3.20;;;;;;;8.96;89.01;98653.19;5104527;28;20035;-59
2022/04/27 07:29:28;;;;;;;5.97;3.17;;;;;;;8.94;88.00;98657.66;5095978;28;20753;-58
2022/04/27 07:31:53;;;;;;;7.20;3.35;;;;;;;8.97;87.97;98654.81;5100746;28;20028;-58
2022/04/27 07:34:19;;;;;;;7.53;3.13;;;;;;;8.69;86.94;98608.88;5089849;28;20099;-59
2022/04/27 07:36:44;;;;;;;5.97;1.88;;;;;;;8.87;83.97;98666.13;5097802;28;20036;-59
2022/04/27 07:39:10;;;;;;;5.30;2.40;;;;;;;8.91;84.24;98665.72;5096871;28;20466;-59
2022/04/27 07:41:35;;;;;;;5.70;2.20;;;;;;;8.77;84.81;98625.44;5104705;28;20413;-59
2022/04/27 07:44:01;;;;;;;6.38;1.98;;;;;;;8.95;83.85;98659.31;5097397;28;20027;-59
2022/04/27 07:46:27;;;;;;;7.68;2.13;;;;;;;9.03;84.90;98663.84;5098816;28;20032;-59
2022/04/27 07:48:52;;;;;;;4.78;1.60;;;;;;;9.03;83.92;98662.09;5101933;28;20028;-58
2022/04/27 07:51:18;;;;;;;4.78;1.70;;;;;;;9.07;82.37;98661.78;5099069;28;20032;-59
2022/04/27 07:53:43;;;;;;;5.55;1.90;;;;;;;9.04;82.95;98658.53;5096783;28;20028;-59
2022/04/27 07:56:09;;;;;;;5.63;1.90;;;;;;;9.05;81.12;98654.16;5095841;28;20039;-59
2022/04/27 07:58:35;;;;;;;4.32;1.60;;;;;;;9.14;81.14;98655.94;5106597;27;20475;-59
2022/04/27 08:01:01;;;;;;;4.07;1.83;;;;;;;9.18;83.01;98657.31;5088200;28;20040;-57
2022/04/27 08:03:26;;;;;;;5.05;1.63;;;;;;;9.24;80.02;98663.75;5098772;28;20027;-59
2022/04/27 08:05:52;;;;;;;7.53;1.70;;;;;;;9.23;80.73;98657.72;5102117;28;20031;-58
2022/04/27 08:08:17;;;;;;;5.15;2.15;;;;;;;9.17;80.37;98660.06;5081184;28;20683;-59
2022/04/27 08:10:42;;;;;;;6.88;2.40;;;;;;;9.22;83.70;98661.28;5089753;28;20089;-59
2022/04/27 08:13:08;;;;;;;5.15;1.70;;;;;;;9.28;82.54;98665.09;5090546;28;20020;-59
2022/04/27 08:15:33;;;;;;;4.50;1.95;;;;;;;9.66;78.30;98621.13;5092768;28;20027;-59
2022/04/27 08:18:01;;;;;;;3.55;1.50;;;;;;;11.23;68.80;98659.38;5082496;28;20031;-59
2022/04/27 08:23:17;;;;;;;3.58;1.50;;;;;;;13.67;59.69;98669.63;5098009;28;20047;-59
2022/04/27 08:25:46;;;;;;;5.65;1.30;;;;;;;14.00;54.69;98618.16;5089494;28;20063;-59
2022/04/27 08:28:12;;;;;;;3.60;1.30;;;;;;;14.88;52.11;98666.16;5103100;28;20027;-59
2022/04/27 08:30:40;;;;;;;3.00;1.10;;;;;;;15.57;50.28;98665.41;5101340;28;20477;-59
2022/04/27 08:33:06;;;;;;;4.32;1.30;;;;;;;15.87;49.13;98670.75;5105406;28;20065;-58
2022/04/27 08:35:32;;;;;;;4.35;1.20;;;;;;;16.24;47.64;98677.78;5088938;28;20036;-59
2022/04/27 08:38:01;;;;;;;6.63;2.13;;;;;;;16.91;46.98;98679.50;5105243;28;20039;-59
2022/04/27 08:40:27;;;;;;;4.18;1.23;;;;;;;17.12;44.81;98667.41;5083816;28;20090;-59
2022/04/27 08:42:54;;;;;;;3.45;1.30;;;;;;;17.27;42.54;98672.66;5094608;28;20024;-59
2022/04/27 08:45:19;;;;;;;3.70;1.30;;;;;;;17.38;42.56;98629.31;5096493;28;20030;-58
2022/04/27 08:47:46;;;;;;;5.15;1.50;;;;;;;18.00;42.69;98672.53;5101790;28;20040;-59
2022/04/27 08:50:12;;;;;;;3.83;1.25;;;;;;;18.48;41.62;98677.91;5103310;28;20023;-58
2022/04/27 08:52:40;;;;;;;3.08;1.10;;;;;;;18.72;40.33;98650.25;5088304;28;20031;-59
2022/04/27 08:55:05;;;;;;;3.53;1.20;;;;;;;18.72;38.67;98659.97;5104366;28;20032;-58
2022/04/27 08:57:31;;;;;;;4.43;1.05;;;;;;;18.91;38.79;98621.56;5079165;28;20608;-59
2022/04/27 08:59:56;;;;;;;4.43;1.10;;;;;;;19.10;35.98;98665.63;5097216;28;20829;-59
2022/04/27 09:02:23;;;;;;;3.33;1.17;;;;;;;18.76;37.59;98633.03;5083035;28;20127;-59
2022/04/27 09:05:15;;;;;;;5.07;1.27;;;;;;;18.70;37.62;98664.63;5097352;28;20700;-59
2022/04/27 09:07:44;;;;;;;3.05;1.10;;;;;;;18.25;37.63;98662.34;5101503;28;20675;-58
2022/04/27 09:10:11;;;;;;;3.15;1.20;;;;;;;17.10;38.72;98662.38;5081130;28;20081;-58
2022/04/27 09:12:46;;;;;;;3.55;1.13;;;;;;;16.14;41.47;98619.53;5101357;28;20492;-59
2022/04/27 09:15:13;;;;;;;3.30;1.10;;;;;;;15.83;41.33;98656.38;5091592;28;20023;-59
2022/04/27 09:23:28;;;;;;;4.38;1.30;;;;;;;14.96;45.83;98618.97;5103561;28;20112;-58
2022/04/27 09:25:59;;;;;;;3.40;1.30;;;;;;;15.37;46.90;98655.38;5080304;28;20036;-59
2022/04/27 09:28:32;;;;;;;4.60;1.30;;;;;;;14.59;49.09;98546.41;5096692;28;20043;-58
2022/04/27 09:31:01;;;;;;;5.18;1.52;;;;;;;15.08;50.51;98645.59;5098077;28;20035;-58
2022/04/27 09:33:37;;;;;;;3.47;1.27;;;;;;;15.11;50.73;98652.28;5100928;28;20024;-58
2022/04/27 09:36:23;;;;;;;3.60;1.42;;;;;;;15.03;48.33;98647.09;5104210;28;20460;-58
2022/04/27 09:38:53;;;;;;;6.05;1.50;;;;;;;15.10;48.62;98654.09;5090299;28;20575;-58
2022/04/27 09:41:42;;;;;;;3.35;1.20;;;;;;;15.12;47.13;98652.09;5078967;28;20099;-58
2022/04/27 09:44:10;;;;;;;4.50;1.60;;;;;;;15.15;47.25;98651.78;5099901;28;20793;-58
2022/04/27 09:46:40;;;;;;;4.30;1.40;;;;;;;15.12;47.15;98649.47;5089158;28;20561;-58
2022/04/27 09:49:08;;;;;;;3.75;1.35;;;;;;;15.21;46.61;98652.06;5104570;28;20511;-58
2022/04/27 09:51:48;;;;;;;3.55;1.30;;;;;;;15.22;42.96;98644.00;5093997;28;20080;-58
2022/04/27 09:54:28;;;;;;;3.72;1.20;;;;;;;15.41;44.77;98642.75;5094663;28;20143;-61
2022/04/27 09:56:58;;;;;;;4.40;1.45;;;;;;;15.36;44.40;98637.22;5087339;28;20074;-58
2022/04/27 09:59:30;;;;;;;3.20;1.20;;;;;;;15.36;44.54;98639.84;5090675;28;20220;-58
2022/04/27 10:01:58;;;;;;;3.70;1.25;;;;;;;15.24;43.98;98641.22;5073725;28;20043;-58
2022/04/27 10:04:28;;;;;;;4.07;1.40;;;;;;;15.24;43.88;98638.59;5080510;28;20623;-58
2022/04/27 10:06:58;;;;;;;4.20;1.17;;;;;;;15.65;42.63;98636.50;5076626;28;20027;-58
2022/04/27 10:09:28;;;;;;;3.55;1.38;;;;;;;16.29;40.22;98628.22;5082894;28;20023;-58
2022/04/27 10:11:55;;;;;;;2.92;1.20;;;;;;;16.04;43.42;98637.34;5090682;28;20390;-58
2022/04/27 10:14:21;;;;;;;4.35;1.15;;;;;;;15.85;44.34;98634.22;5079174;28;20030;-59
2022/04/27 10:16:48;;;;;;;4.82;1.50;;;;;;;15.86;44.71;98625.38;5078199;28;20085;-59
2022/04/27 10:19:15;;;;;;;4.80;1.48;;;;;;;15.89;45.29;98638.13;5077218;28;20043;-58
2022/04/27 10:22:05;;;;;;;20.77;10.30;;;;;;;16.21;42.02;98630.94;5066380;28;20028;-58
2022/04/27 10:24:34;;;;;;;8.10;2.80;;;;;;;16.21;43.99;98627.47;5077274;28;20237;-58
2022/04/27 10:27:18;;;;;;;7.03;2.65;;;;;;;16.11;44.92;98625.94;5094970;28;20039;-58
2022/04/27 10:29:46;;;;;;;8.60;2.00;;;;;;;16.21;45.28;98625.69;5100387;28;20535;-58
2022/04/27 10:32:11;;;;;;;4.30;1.80;;;;;;;15.97;44.93;98595.25;5094809;28;20117;-58
2022/04/27 10:34:37;;;;;;;4.97;1.80;;;;;;;15.84;46.80;98582.78;5094848;28;20514;-58
2022/04/27 10:37:03;;;;;;;4.18;1.80;;;;;;;16.11;46.35;98630.38;5086788;28;20478;-58
2022/04/27 10:39:32;;;;;;;4.57;1.90;;;;;;;16.05;46.07;98626.66;5076668;28;20085;-58
2022/04/27 10:42:04;;;;;;;5.57;2.15;;;;;;;16.12;46.43;98624.97;5078487;28;20848;-58
2022/04/27 10:44:50;;;;;;;6.53;2.30;;;;;;;16.19;43.84;98619.81;5079943;28;20239;-58
2022/04/27 10:47:18;;;;;;;4.85;2.10;;;;;;;16.26;45.47;98622.50;5070258;28;20049;-58
2022/04/27 10:49:46;;;;;;;5.22;2.28;;;;;;;16.20;45.23;98629.28;5096828;27;20078;-58
2022/04/27 10:52:12;;;;;;;4.90;2.38;;;;;;;16.33;46.06;98623.41;5080580;28;20067;-58
2022/04/27 10:54:39;;;;;;;4.82;2.40;;;;;;;16.19;44.53;98609.31;5080313;28;20063;-58
2022/04/27 10:57:17;;;;;;;5.40;2.35;;;;;;;16.33;43.41;98618.16;5075579;28;20295;-58
2022/04/27 11:00:01;;;;;;;4.75;2.17;;;;;;;16.41;44.18;98623.34;5079203;28;20092;-58
2022/04/27 11:02:40;;;;;;;4.68;2.20;;;;;;;16.61;45.11;98615.72;5076267;28;20024;-59
2022/04/27 11:05:19;;;;;;;7.30;2.85;;;;;;;16.43;44.76;98591.66;5080444;28;20124;-59
2022/04/27 11:07:53;;;;;;;6.38;3.08;;;;;;;16.49;43.98;98586.50;5075868;28;20157;-59
2022/04/27 11:10:21;;;;;;;6.28;2.90;;;;;;;16.37;42.93;98577.44;5079050;28;20019;-59
2022/04/27 11:12:53;;;;;;;7.00;3.33;;;;;;;16.55;44.63;98616.44;5066329;28;20036;-58
2022/04/27 11:15:23;;;;;;;6.75;3.80;;;;;;;16.75;47.04;98618.50;5074563;28;20489;-59
2022/04/27 11:18:01;;;;;;;7.75;4.38;;;;;;;16.75;45.67;98613.25;5070651;28;20387;-58
2022/04/27 11:20:35;;;;;;;9.18;4.90;;;;;;;16.69;46.18;98599.03;5072500;28;20034;-59
2022/04/27 11:23:07;;;;;;;8.80;4.57;;;;;;;16.86;47.04;98624.09;5038428;28;20571;-59
2022/04/27 11:25:36;;;;;;;7.00;4.32;;;;;;;16.87;45.88;98614.44;5089881;28;20035;-59
2022/04/27 11:28:03;;;;;;;8.10;4.68;;;;;;;16.71;46.08;98583.91;5078160;28;20028;-58
2022/04/27 11:30:30;;;;;;;7.43;4.35;;;;;;;16.94;44.97;98620.56;5102578;28;20019;-59
2022/04/27 11:32:56;;;;;;;11.02;5.38;;;;;;;17.05;46.59;98608.78;5091113;28;20204;-58
2022/04/27 11:35:24;;;;;;;8.57;5.80;;;;;;;17.15;45.93;98619.75;5090100;28;20494;-59
2022/04/27 11:37:52;;;;;;;7.55;4.93;;;;;;;17.05;46.14;98619.28;5092142;28;20030;-58
2022/04/27 11:40:19;;;;;;;9.13;6.38;;;;;;;16.88;48.22;98572.25;5083124;27;20031;-58
2022/04/27 11:42:46;;;;;;;9.75;6.18;;;;;;;17.23;47.71;98608.31;5079176;28;20757;-59
2022/04/27 11:45:13;;;;;;;10.55;6.43;;;;;;;17.16;48.38;98582.00;5078027;28;20032;-58
2022/04/27 11:47:39;;;;;;;8.05;5.80;;;;;;;17.52;45.61;98622.34;5076430;28;20416;-58
2022/04/27 11:50:06;;;;;;;12.82;6.15;;;;;;;17.44;47.18;98605.69;5074611;28;20094;-59
2022/04/27 11:52:36;;;;;;;9.27;6.13;;;;;;;17.61;45.53;98614.13;5066851;28;20024;-58
2022/04/27 11:55:02;;;;;;;;;;;;;;;17.65;47.12;98617.19;5060840;28;20082;-58
2022/04/27 11:57:28;;;;;;;11.88;6.50;;;;;;;17.70;47.27;98617.41;5081698;28;19916;-59
2022/04/27 11:59:57;;;;;;;9.05;5.90;;;;;;;17.75;47.25;98612.41;5066582;28;20016;-59
2022/04/27 12:02:24;;;;;;;9.80;6.60;;;;;;;17.95;44.75;98611.78;5062736;28;20039;-58
2022/04/27 12:04:51;;;;;;;8.73;6.28;;;;;;;17.96;45.12;98608.13;5070248;28;20024;-58
2022/04/27 12:07:17;;;;;;;8.85;6.93;;;;;;;17.77;47.42;98572.78;5067306;28;20075;-59
2022/04/27 12:09:57;;;;;;;10.38;7.63;;;;;;;17.79;46.95;98578.66;5067731;28;20115;-59
2022/04/27 12:12:24;;;;;;;11.00;6.88;;;;;;;17.91;47.20;98600.03;5076983;28;21187;-58
2022/04/27 12:14:50;;;;;;;10.48;6.82;;;;;;;17.80;46.02;98580.28;5066345;28;20789;-59
2022/04/27 12:17:42;;;;;;;10.52;6.38;;;;;;;18.22;46.03;98603.03;5064483;28;20033;-59
2022/04/27 12:20:12;;;;;;;8.75;5.78;;;;;;;18.30;47.26;98606.53;5086826;28;20031;-59
2022/04/27 12:22:51;;;;;;;8.73;5.65;;;;;;;18.39;43.94;98602.72;5027871;28;21276;-58
2022/04/27 12:25:16;;;;;;;8.40;5.40;;;;;;;18.40;43.86;98605.16;5064503;28;20048;-58
2022/04/27 12:27:42;;;;;;;11.05;6.45;;;;;;;18.35;44.48;98602.28;5071507;28;20479;-59
2022/04/27 12:30:08;;;;;;;10.02;5.38;;;;;;;18.23;43.60;98562.56;5070692;28;20031;-59
2022/04/27 12:32:34;;;;;;;8.25;5.80;;;;;;;18.17;42.23;98529.13;5073885;28;20034;-59
2022/04/27 12:37:50;;;;;;;8.02;5.10;;;;;;;18.63;44.16;98609.31;5069839;28;20100;-59
2022/04/27 12:40:16;;;;;;;8.25;4.75;;;;;;;18.86;41.64;98597.69;5065961;28;20479;-59
2022/04/27 12:43:01;;;;;;;9.13;5.57;;;;;;;18.72;43.19;98600.22;5059379;28;20064;-59
2022/04/27 12:45:27;;;;;;;9.23;5.28;;;;;;;18.64;43.07;98606.47;5064863;28;20091;-59
2022/04/27 12:47:53;;;;;;;8.07;5.18;;;;;;;18.85;44.55;98596.03;5067964;28;20811;-59
2022/04/27 12:50:19;;;;;;;9.68;5.25;;;;;;;18.91;43.61;98590.78;5070276;28;20020;-58
2022/04/27 12:52:45;;;;;;;7.00;4.93;;;;;;;18.92;42.11;98589.78;5068019;28;20036;-59
2022/04/27 12:55:12;;;;;;;9.52;5.10;;;;;;;18.79;39.88;98589.72;5061910;28;20048;-59
2022/04/27 12:57:49;;;;;;;6.72;4.50;;;;;;;18.56;42.77;98548.72;5068684;28;20032;-59
2022/04/27 13:00:17;;;;;;;9.50;4.90;;;;;;;18.98;42.15;98589.00;5069657;28;20024;-59
2022/04/27 13:02:43;;;;;;;9.45;4.82;;;;;;;18.96;41.58;98567.28;5067155;28;20076;-59
2022/04/27 13:05:09;;;;;;;8.57;4.78;;;;;;;19.12;39.86;98576.63;5065841;28;20020;-59
2022/04/27 13:07:34;;;;;;;7.82;4.82;;;;;;;19.15;41.08;98570.16;5072382;28;20595;-59
2022/04/27 13:12:44;;;;;;;6.82;3.88;;;;;;;19.25;39.90;98580.31;5063180;28;20055;-58
2022/04/27 13:15:10;;;;;;;7.95;4.30;;;;;;;19.26;39.64;98576.66;5071045;28;20028;-59
2022/04/27 13:17:36;;;;;;;8.00;4.47;;;;;;;19.32;40.22;98574.03;5069658;28;20024;-59
2022/04/27 13:20:03;;;;;;;9.48;4.18;;;;;;;19.41;40.28;98577.28;5066606;28;20032;-59
2022/04/27 13:22:29;;;;;;;6.93;4.18;;;;;;;19.26;39.41;98539.75;5072764;28;20028;-58
2022/04/27 13:24:54;;;;;;;6.35;4.20;;;;;;;19.57;39.74;98576.06;5073153;28;20016;-59
2022/04/27 13:27:22;;;;;;;8.50;4.38;;;;;;;19.37;38.33;98541.78;5068177;28;20149;-59
2022/04/27 13:29:47;;;;;;;6.18;3.92;;;;;;;19.64;38.93;98558.41;5064163;28;20013;-59
2022/04/27 13:32:12;;;;;;;7.90;4.55;;;;;;;19.62;39.28;98568.34;5073438;28;20526;-59
2022/04/27 13:34:38;;;;;;;8.15;4.57;;;;;;;19.48;38.22;98561.47;5065838;28;20385;-59
2022/04/27 13:37:04;;;;;;;7.75;4.32;;;;;;;19.56;37.70;98556.78;5072403;28;20028;-58
2022/04/27 13:39:29;;;;;;;8.20;4.30;;;;;;;19.68;39.82;98551.72;5071971;28;20025;-59
2022/04/27 13:41:56;;;;;;;7.25;4.25;;;;;;;19.87;38.76;98563.25;5071681;28;21463;-59
2022/04/27 13:44:22;;;;;;;7.93;4.18;;;;;;;19.84;37.79;98549.66;5065423;28;20084;-59
2022/04/27 13:46:47;;;;;;;7.90;4.55;;;;;;;19.93;38.02;98565.09;5074695;28;20025;-58
2022/04/27 13:49:13;;;;;;;6.90;4.00;;;;;;;19.87;38.74;98560.63;5075024;28;20074;-59
2022/04/27 13:51:39;;;;;;;7.32;3.83;;;;;;;19.63;39.52;98554.16;5069900;28;20493;-58
2022/04/27 13:54:05;;;;;;;7.90;4.07;;;;;;;19.50;38.63;98554.16;5079420;28;20025;-59
2022/04/27 13:56:30;;;;;;;7.25;4.20;;;;;;;19.28;38.52;98535.09;5072408;28;20038;-59
2022/04/27 13:58:57;;;;;;;6.70;3.72;;;;;;;19.37;39.65;98552.34;5076089;28;20737;-58
2022/04/27 14:01:22;;;;;;;7.30;3.85;;;;;;;19.20;39.34;98521.13;5073921;28;20039;-59
2022/04/27 14:03:48;;;;;;;9.13;4.00;;;;;;;19.42;40.79;98544.59;5071860;28;20029;-59
2022/04/27 14:06:18;;;;;;;7.13;4.40;;;;;;;19.33;39.68;98499.22;5072175;28;20094;-59
2022/04/27 14:08:44;;;;;;;8.43;4.88;;;;;;;19.52;38.88;98529.19;5075430;28;20037;-59
2022/04/27 14:13:10;;;;;;;7.25;4.05;;;;;;;19.41;39.44;98492.91;5070094;28;20032;-58
2022/04/27 14:13:55;;;;;;;8.40;4.78;;;;;;;19.77;38.90;98541.78;5077438;28;20040;-59
2022/04/27 14:19:04;;;;;;;9.48;4.38;;;;;;;20.08;39.76;98533.19;5066008;28;20047;-58
2022/04/27 14:21:30;;;;;;;8.90;4.03;;;;;;;20.11;39.43;98527.47;5070100;28;20487;-59
2022/04/27 14:23:55;;;;;;;8.32;3.90;;;;;;;20.23;38.86;98529.47;5074292;28;20056;-59
2022/04/27 14:26:20;;;;;;;9.52;4.38;;;;;;;20.25;38.59;98530.88;5067857;28;20122;-60
2022/04/27 14:28:46;;;;;;;7.38;4.30;;;;;;;20.27;38.56;98539.41;5074065;28;20624;-59
2022/04/27 14:31:11;;;;;;;8.52;4.57;;;;;;;20.05;37.60;98496.66;5084477;28;20056;-60
2022/04/27 14:33:37;;;;;;;7.10;4.20;;;;;;;20.26;37.43;98535.16;5077867;28;20024;-59
2022/04/27 14:36:03;;;;;;;8.55;4.28;;;;;;;20.21;37.50;98520.97;5070729;28;20047;-59
2022/04/27 14:38:29;;;;;;;7.13;3.60;;;;;;;20.35;38.22;98528.63;5072700;28;20320;-60
2022/04/27 14:40:55;;;;;;;7.10;3.95;;;;;;;20.34;37.90;98526.19;5065984;28;20038;-60
2022/04/27 14:43:21;;;;;;;7.78;4.13;;;;;;;20.41;37.31;98523.50;5069618;28;20035;-59
2022/04/27 14:45:47;;;;;;;6.53;3.95;;;;;;;20.35;38.40;98509.31;5073440;28;20032;-59
2022/04/27 14:48:12;;;;;;;7.65;4.05;;;;;;;20.34;38.20;98521.69;5066479;28;20466;-59
2022/04/27 14:50:38;;;;;;;8.50;4.60;;;;;;;20.32;38.23;98529.03;5067399;28;20058;-59
2022/04/27 14:53:04;;;;;;;7.60;4.20;;;;;;;20.28;38.00;98516.44;5072353;28;20033;-60
2022/04/27 14:55:30;;;;;;;8.57;4.15;;;;;;;20.27;39.29;98504.28;5042274;28;21509;-60
2022/04/27 14:57:55;;;;;;;8.55;4.20;;;;;;;20.22;39.58;98477.69;5064600;28;20023;-60
2022/04/27 15:00:21;;;;;;;10.93;5.32;;;;;;;20.60;37.83;98522.59;5078468;28;20031;-60
2022/04/27 15:02:47;;;;;;;7.85;4.65;;;;;;;20.48;39.32;98521.63;5075195;28;20029;-60
2022/04/27 15:05:15;;;;;;;10.25;4.90;;;;;;;20.48;38.31;98519.81;5070291;28;20032;-60
2022/04/27 15:07:40;;;;;;;7.90;4.90;;;;;;;20.54;38.46;98518.16;5071279;28;20502;-60
2022/04/27 15:10:06;;;;;;;8.90;5.45;;;;;;;20.38;37.05;98513.38;5078186;28;20016;-59
2022/04/27 15:12:31;;;;;;;9.05;4.75;;;;;;;20.20;37.98;98480.53;5071098;28;20093;-60
2022/04/27 15:14:57;;;;;;;9.40;5.03;;;;;;;20.34;38.28;98486.56;5072197;28;20490;-60
2022/04/27 15:17:22;;;;;;;7.70;4.60;;;;;;;20.45;38.84;98517.59;5071094;28;20031;-61
2022/04/27 15:22:42;;;;;;;9.57;5.03;;;;;;;20.54;37.58;98505.75;5067093;28;20117;-61
2022/04/27 15:25:09;;;;;;;8.55;4.55;;;;;;;20.43;37.36;98480.03;5067178;28;20298;-61
2022/04/27 15:27:35;;;;;;;7.85;4.57;;;;;;;20.29;37.00;98489.03;5062712;28;20028;-60
2022/04/27 15:30:00;;;;;;;9.23;5.18;;;;;;;20.35;37.79;98494.28;5065322;28;20031;-61
2022/04/27 15:32:26;;;;;;;7.55;4.78;;;;;;;20.50;37.45;98522.25;5068539;28;20675;-61
2022/04/27 15:34:51;;;;;;;7.30;4.57;;;;;;;20.29;37.86;98481.91;5074629;28;20047;-62
2022/04/27 15:37:19;;;;;;;9.60;5.05;;;;;;;20.61;37.99;98521.63;5078619;28;20122;-62
2022/04/27 15:39:44;;;;;;;7.90;4.72;;;;;;;20.66;38.28;98515.69;5075816;28;20037;-61
2022/04/27 15:42:10;;;;;;;8.30;4.90;;;;;;;20.66;38.00;98516.50;5062073;28;21152;-61
2022/04/27 15:44:36;;;;;;;8.90;5.25;;;;;;;20.59;37.54;98514.88;5076021;28;20047;-60
2022/04/27 15:47:02;;;;;;;7.15;4.82;;;;;;;20.64;37.82;98520.38;5058021;28;20062;-61
2022/04/27 15:49:28;;;;;;;7.97;4.20;;;;;;;20.68;39.71;98518.91;5077527;28;20108;-60
2022/04/27 15:51:53;;;;;;;6.65;4.00;;;;;;;20.52;40.15;98518.38;5077161;28;20212;-60
2022/04/27 15:54:18;;;;;;;7.45;4.35;;;;;;;20.54;38.93;98518.97;5068229;28;20036;-60
2022/04/27 15:56:44;;;;;;;8.35;4.45;;;;;;;20.58;39.27;98515.91;5072238;28;20115;-60
2022/04/27 15:59:12;;;;;;;7.50;4.38;;;;;;;20.44;38.76;98518.59;5074087;28;20032;-59
2022/04/27 16:01:38;;;;;;;9.07;5.20;;;;;;;20.12;38.11;98486.06;5067715;28;20106;-59
2022/04/27 16:04:05;;;;;;;7.53;5.18;;;;;;;20.31;37.89;98523.94;5073601;28;20036;-59
2022/04/27 16:06:31;;;;;;;8.98;4.90;;;;;;;20.34;38.35;98519.06;5071510;28;20463;-60
2022/04/27 16:08:57;;;;;;;10.02;5.38;;;;;;;20.45;38.29;98530.81;5071220;28;20032;-60
2022/04/27 16:11:23;;;;;;;8.40;5.40;;;;;;;20.52;37.88;98536.06;5066344;28;20039;-59
2022/04/27 16:13:49;;;;;;;8.23;4.93;;;;;;;20.54;38.05;98520.81;5065941;28;20035;-60
2022/04/27 16:16:15;;;;;;;8.70;4.43;;;;;;;20.26;39.22;98500.84;5065498;28;20039;-60
2022/04/27 16:18:42;;;;;;;10.88;4.95;;;;;;;20.40;38.93;98529.81;5065245;28;20040;-60
2022/04/27 16:23:52;;;;;;;7.15;4.05;;;;;;;19.99;40.49;98531.78;5062269;28;20104;-59
2022/04/27 16:26:18;;;;;;;9.00;3.90;;;;;;;19.82;41.25;98539.31;5061156;28;20029;-60
2022/04/27 16:28:44;;;;;;;7.47;4.15;;;;;;;19.68;42.05;98543.00;5067177;28;20106;-61
2022/04/27 16:31:10;;;;;;;8.10;4.88;;;;;;;19.42;41.17;98544.59;5072943;28;20183;-61
2022/04/27 16:33:36;;;;;;;8.77;5.00;;;;;;;19.27;41.64;98541.38;5062075;28;20564;-60
2022/04/27 16:36:02;;;;;;;8.88;5.40;;;;;;;19.23;41.50;98551.50;5068329;28;20036;-59
2022/04/27 16:38:28;;;;;;;7.70;5.00;;;;;;;19.15;41.78;98539.34;5067231;28;20118;-60
2022/04/27 16:40:54;;;;;;;8.30;4.18;;;;;;;18.90;42.49;98504.06;5071654;28;20036;-60
2022/04/27 16:45:57;;;;;;;7.30;4.40;;;;;;;19.05;43.32;98552.09;5050566;28;20982;-61
2022/04/27 16:48:23;;;;;;;7.78;4.38;;;;;;;18.93;44.04;98549.25;5030488;28;20030;-60
2022/04/27 16:50:49;;;;;;;7.47;4.35;;;;;;;18.92;43.55;98557.34;5038949;28;20482;-61
2022/04/27 16:53:15;;;;;;;6.97;4.45;;;;;;;18.81;44.19;98554.28;5037785;28;20024;-61
2022/04/27 16:55:41;;;;;;;8.65;4.50;;;;;;;18.70;44.34;98554.84;5029968;28;20479;-61
2022/04/27 16:58:07;;;;;;;10.88;5.10;;;;;;;18.61;44.45;98548.94;5014535;28;20192;-61
